sensor_id;sensor_type;location;lat;lon;timestamp;P1;durP1;ratioP1;P2;durP2;ratioP2
3050;SDS011;1535;51.098;6.414;2022-07-29T00:00:21;12.13;;;11.53;;
3050;SDS011;1535;51.098;6.414;2022-07-29T00:02:48;12.63;;;11.57;;
3050;SDS011;1535;51.098;6.414;2022-07-29T00:05:16;12.33;;;11.53;;
3050;SDS011;1535;51.098;6.414;2022-07-29T00:07:43;13.13;;;12.20;;
3050;SDS011;1535;51.098;6.414;2022-07-29T00:10:11;12.70;;;11.80;;
3050;SDS011;1535;51.098;6.414;2022-07-29T00:12:39;12.70;;;11.70;;
3050;SDS011;1535;51.098;6.414;2022-07-29T00:15:06;13.23;;;12.23;;
3050;SDS011;1535;51.098;6.414;2022-07-29T00:17:34;12.17;;;11.40;;
3050;SDS011;1535;51.098;6.414;2022-07-29T00:20:00;13.07;;;11.87;;
3050;SDS011;1535;51.098;6.414;2022-07-29T00:22:27;13.03;;;12.10;;
3050;SDS011;1535;51.098;6.414;2022-07-29T00:24:54;12.30;;;11.50;;
3050;SDS011;1535;51.098;6.414;2022-07-29T00:27:21;12.43;;;11.73;;
3050;SDS011;1535;51.098;6.414;2022-07-29T00:29:50;11.90;;;11.30;;
3050;SDS011;1535;51.098;6.414;2022-07-29T00:32:17;12.07;;;11.37;;
3050;SDS011;1535;51.098;6.414;2022-07-29T00:34:44;12.63;;;11.53;;
3050;SDS011;1535;51.098;6.414;2022-07-29T00:37:28;12.20;;;11.50;;
3050;SDS011;1535;51.098;6.414;2022-07-29T00:39:56;12.70;;;11.87;;
3050;SDS011;1535;51.098;6.414;2022-07-29T00:42:22;13.30;;;12.10;;
3050;SDS011;1535;51.098;6.414;2022-07-29T00:44:51;13.03;;;11.80;;
3050;SDS011;1535;51.098;6.414;2022-07-29T00:47:19;13.73;;;12.73;;
3050;SDS011;1535;51.098;6.414;2022-07-29T00:49:47;12.73;;;11.93;;
3050;SDS011;1535;51.098;6.414;2022-07-29T00:52:14;13.00;;;12.07;;
3050;SDS011;1535;51.098;6.414;2022-07-29T00:54:41;12.83;;;11.97;;
3050;SDS011;1535;51.098;6.414;2022-07-29T00:57:09;13.27;;;12.17;;
3050;SDS011;1535;51.098;6.414;2022-07-29T00:59:37;13.20;;;12.20;;
3050;SDS011;1535;51.098;6.414;2022-07-29T01:02:06;15.90;;;12.47;;
3050;SDS011;1535;51.098;6.414;2022-07-29T01:04:33;12.57;;;11.80;;
3050;SDS011;1535;51.098;6.414;2022-07-29T01:07:01;13.00;;;12.20;;
3050;SDS011;1535;51.098;6.414;2022-07-29T01:09:28;12.33;;;11.70;;
3050;SDS011;1535;51.098;6.414;2022-07-29T01:11:57;19.73;;;12.33;;
3050;SDS011;1535;51.098;6.414;2022-07-29T01:14:25;14.17;;;12.30;;
3050;SDS011;1535;51.098;6.414;2022-07-29T01:16:54;13.07;;;12.30;;
3050;SDS011;1535;51.098;6.414;2022-07-29T01:19:33;13.50;;;12.30;;
3050;SDS011;1535;51.098;6.414;2022-07-29T01:22:18;13.23;;;12.10;;
3050;SDS011;1535;51.098;6.414;2022-07-29T01:25:05;14.00;;;12.77;;
3050;SDS011;1535;51.098;6.414;2022-07-29T01:27:45;14.17;;;12.93;;
3050;SDS011;1535;51.098;6.414;2022-07-29T01:30:27;14.03;;;13.27;;
3050;SDS011;1535;51.098;6.414;2022-07-29T01:32:59;14.07;;;12.90;;
3050;SDS011;1535;51.098;6.414;2022-07-29T01:35:28;12.87;;;12.20;;
3050;SDS011;1535;51.098;6.414;2022-07-29T01:38:00;12.97;;;12.03;;
3050;SDS011;1535;51.098;6.414;2022-07-29T01:40:33;13.03;;;12.33;;
3050;SDS011;1535;51.098;6.414;2022-07-29T01:43:05;14.30;;;13.20;;
3050;SDS011;1535;51.098;6.414;2022-07-29T01:45:39;13.53;;;12.60;;
3050;SDS011;1535;51.098;6.414;2022-07-29T01:48:10;15.73;;;13.60;;
3050;SDS011;1535;51.098;6.414;2022-07-29T01:50:45;13.57;;;12.70;;
3050;SDS011;1535;51.098;6.414;2022-07-29T01:53:14;15.13;;;13.90;;
3050;SDS011;1535;51.098;6.414;2022-07-29T01:55:51;14.47;;;13.17;;
3050;SDS011;1535;51.098;6.414;2022-07-29T01:58:20;13.83;;;12.60;;
3050;SDS011;1535;51.098;6.414;2022-07-29T02:00:50;14.30;;;13.50;;
3050;SDS011;1535;51.098;6.414;2022-07-29T02:03:18;13.97;;;12.90;;
3050;SDS011;1535;51.098;6.414;2022-07-29T02:05:47;13.73;;;12.80;;
3050;SDS011;1535;51.098;6.414;2022-07-29T02:08:16;13.53;;;12.63;;
3050;SDS011;1535;51.098;6.414;2022-07-29T02:10:45;15.70;;;14.30;;
3050;SDS011;1535;51.098;6.414;2022-07-29T02:13:13;15.00;;;13.53;;
3050;SDS011;1535;51.098;6.414;2022-07-29T02:15:42;13.80;;;12.60;;
3050;SDS011;1535;51.098;6.414;2022-07-29T02:18:14;13.23;;;12.43;;
3050;SDS011;1535;51.098;6.414;2022-07-29T02:20:44;13.73;;;12.83;;
3050;SDS011;1535;51.098;6.414;2022-07-29T02:23:12;13.50;;;12.53;;
3050;SDS011;1535;51.098;6.414;2022-07-29T02:25:43;13.20;;;12.60;;
3050;SDS011;1535;51.098;6.414;2022-07-29T02:28:11;14.63;;;12.57;;
3050;SDS011;1535;51.098;6.414;2022-07-29T02:30:41;14.67;;;13.47;;
3050;SDS011;1535;51.098;6.414;2022-07-29T02:33:09;14.27;;;13.20;;
3050;SDS011;1535;51.098;6.414;2022-07-29T02:35:41;13.13;;;12.17;;
3050;SDS011;1535;51.098;6.414;2022-07-29T02:38:12;14.40;;;13.17;;
3050;SDS011;1535;51.098;6.414;2022-07-29T02:40:58;14.23;;;13.03;;
3050;SDS011;1535;51.098;6.414;2022-07-29T02:43:27;13.43;;;12.70;;
3050;SDS011;1535;51.098;6.414;2022-07-29T02:45:56;13.47;;;12.40;;
3050;SDS011;1535;51.098;6.414;2022-07-29T02:48:32;13.37;;;12.50;;
3050;SDS011;1535;51.098;6.414;2022-07-29T02:51:05;13.50;;;12.70;;
3050;SDS011;1535;51.098;6.414;2022-07-29T02:53:34;14.10;;;12.90;;
3050;SDS011;1535;51.098;6.414;2022-07-29T02:56:06;14.23;;;13.33;;
3050;SDS011;1535;51.098;6.414;2022-07-29T02:58:38;15.00;;;12.70;;
3050;SDS011;1535;51.098;6.414;2022-07-29T03:01:08;15.87;;;14.73;;
3050;SDS011;1535;51.098;6.414;2022-07-29T03:06:22;19.10;;;18.10;;
3050;SDS011;1535;51.098;6.414;2022-07-29T03:08:52;19.53;;;18.17;;
3050;SDS011;1535;51.098;6.414;2022-07-29T03:11:20;20.93;;;19.37;;
3050;SDS011;1535;51.098;6.414;2022-07-29T03:13:49;19.33;;;17.70;;
3050;SDS011;1535;51.098;6.414;2022-07-29T03:16:17;18.87;;;17.47;;
3050;SDS011;1535;51.098;6.414;2022-07-29T03:18:45;17.30;;;16.20;;
3050;SDS011;1535;51.098;6.414;2022-07-29T03:21:16;17.50;;;16.10;;
3050;SDS011;1535;51.098;6.414;2022-07-29T03:23:45;24.50;;;22.10;;
3050;SDS011;1535;51.098;6.414;2022-07-29T03:26:12;24.80;;;22.47;;
3050;SDS011;1535;51.098;6.414;2022-07-29T03:28:40;25.43;;;23.13;;
3050;SDS011;1535;51.098;6.414;2022-07-29T03:31:07;25.90;;;23.50;;
3050;SDS011;1535;51.098;6.414;2022-07-29T03:33:35;26.97;;;24.27;;
3050;SDS011;1535;51.098;6.414;2022-07-29T03:36:02;26.47;;;23.87;;
3050;SDS011;1535;51.098;6.414;2022-07-29T03:38:30;26.00;;;23.70;;
3050;SDS011;1535;51.098;6.414;2022-07-29T03:41:00;26.00;;;23.80;;
3050;SDS011;1535;51.098;6.414;2022-07-29T03:43:32;26.37;;;24.20;;
3050;SDS011;1535;51.098;6.414;2022-07-29T03:46:02;24.87;;;22.67;;
3050;SDS011;1535;51.098;6.414;2022-07-29T03:48:34;24.40;;;22.60;;
3050;SDS011;1535;51.098;6.414;2022-07-29T03:51:03;25.53;;;23.13;;
3050;SDS011;1535;51.098;6.414;2022-07-29T03:53:31;24.87;;;22.47;;
3050;SDS011;1535;51.098;6.414;2022-07-29T03:56:00;23.90;;;22.00;;
3050;SDS011;1535;51.098;6.414;2022-07-29T03:58:29;23.30;;;21.40;;
3050;SDS011;1535;51.098;6.414;2022-07-29T04:00:57;23.37;;;21.37;;
3050;SDS011;1535;51.098;6.414;2022-07-29T04:03:25;23.73;;;21.63;;
3050;SDS011;1535;51.098;6.414;2022-07-29T04:06:01;23.27;;;21.20;;
3050;SDS011;1535;51.098;6.414;2022-07-29T04:08:32;23.50;;;21.70;;
3050;SDS011;1535;51.098;6.414;2022-07-29T04:10:59;26.17;;;23.07;;
3050;SDS011;1535;51.098;6.414;2022-07-29T04:13:26;23.37;;;21.47;;
3050;SDS011;1535;51.098;6.414;2022-07-29T04:15:53;24.03;;;21.87;;
3050;SDS011;1535;51.098;6.414;2022-07-29T04:18:20;22.27;;;20.57;;
3050;SDS011;1535;51.098;6.414;2022-07-29T04:20:47;22.80;;;20.93;;
3050;SDS011;1535;51.098;6.414;2022-07-29T04:23:14;24.00;;;21.47;;
3050;SDS011;1535;51.098;6.414;2022-07-29T04:25:42;22.33;;;20.17;;
3050;SDS011;1535;51.098;6.414;2022-07-29T04:28:09;20.20;;;18.73;;
3050;SDS011;1535;51.098;6.414;2022-07-29T04:30:37;19.90;;;18.40;;
3050;SDS011;1535;51.098;6.414;2022-07-29T04:33:05;19.63;;;17.90;;
3050;SDS011;1535;51.098;6.414;2022-07-29T04:35:34;18.30;;;17.10;;
3050;SDS011;1535;51.098;6.414;2022-07-29T04:38:02;24.60;;;17.67;;
3050;SDS011;1535;51.098;6.414;2022-07-29T04:40:30;18.00;;;16.40;;
3050;SDS011;1535;51.098;6.414;2022-07-29T04:42:59;19.10;;;17.17;;
3050;SDS011;1535;51.098;6.414;2022-07-29T04:45:26;19.20;;;17.70;;
3050;SDS011;1535;51.098;6.414;2022-07-29T04:47:53;21.77;;;19.80;;
3050;SDS011;1535;51.098;6.414;2022-07-29T04:50:20;23.60;;;21.27;;
3050;SDS011;1535;51.098;6.414;2022-07-29T04:52:48;24.20;;;21.70;;
3050;SDS011;1535;51.098;6.414;2022-07-29T04:55:15;24.53;;;22.33;;
3050;SDS011;1535;51.098;6.414;2022-07-29T04:57:42;25.60;;;23.30;;
3050;SDS011;1535;51.098;6.414;2022-07-29T05:00:11;26.80;;;22.67;;
3050;SDS011;1535;51.098;6.414;2022-07-29T05:02:38;24.83;;;22.93;;
3050;SDS011;1535;51.098;6.414;2022-07-29T05:05:06;25.17;;;22.83;;
3050;SDS011;1535;51.098;6.414;2022-07-29T05:07:33;25.33;;;23.17;;
3050;SDS011;1535;51.098;6.414;2022-07-29T05:10:00;26.23;;;23.43;;
3050;SDS011;1535;51.098;6.414;2022-07-29T05:12:27;25.10;;;23.10;;
3050;SDS011;1535;51.098;6.414;2022-07-29T05:14:54;25.50;;;23.60;;
3050;SDS011;1535;51.098;6.414;2022-07-29T05:17:22;25.60;;;23.67;;
3050;SDS011;1535;51.098;6.414;2022-07-29T05:19:50;24.90;;;22.60;;
3050;SDS011;1535;51.098;6.414;2022-07-29T05:22:18;24.30;;;22.40;;
3050;SDS011;1535;51.098;6.414;2022-07-29T05:24:45;24.33;;;22.10;;
3050;SDS011;1535;51.098;6.414;2022-07-29T05:27:12;23.90;;;22.00;;
3050;SDS011;1535;51.098;6.414;2022-07-29T05:29:39;23.77;;;22.03;;
3050;SDS011;1535;51.098;6.414;2022-07-29T05:32:06;24.90;;;23.00;;
3050;SDS011;1535;51.098;6.414;2022-07-29T05:34:34;25.10;;;23.10;;
3050;SDS011;1535;51.098;6.414;2022-07-29T05:37:01;23.73;;;21.53;;
3050;SDS011;1535;51.098;6.414;2022-07-29T05:39:28;24.40;;;22.30;;
3050;SDS011;1535;51.098;6.414;2022-07-29T05:41:55;24.47;;;22.43;;
3050;SDS011;1535;51.098;6.414;2022-07-29T05:44:22;23.70;;;21.70;;
3050;SDS011;1535;51.098;6.414;2022-07-29T05:46:49;22.67;;;20.90;;
3050;SDS011;1535;51.098;6.414;2022-07-29T05:49:16;23.00;;;21.20;;
3050;SDS011;1535;51.098;6.414;2022-07-29T05:51:44;22.80;;;20.97;;
3050;SDS011;1535;51.098;6.414;2022-07-29T05:54:12;22.87;;;20.40;;
3050;SDS011;1535;51.098;6.414;2022-07-29T05:56:53;21.53;;;19.83;;
3050;SDS011;1535;51.098;6.414;2022-07-29T05:59:19;19.60;;;18.10;;
3050;SDS011;1535;51.098;6.414;2022-07-29T06:01:46;19.37;;;17.50;;
3050;SDS011;1535;51.098;6.414;2022-07-29T06:04:13;17.77;;;16.10;;
3050;SDS011;1535;51.098;6.414;2022-07-29T06:06:40;19.23;;;17.47;;
3050;SDS011;1535;51.098;6.414;2022-07-29T06:09:08;17.67;;;16.17;;
3050;SDS011;1535;51.098;6.414;2022-07-29T06:11:35;17.60;;;16.20;;
3050;SDS011;1535;51.098;6.414;2022-07-29T06:14:03;17.73;;;16.33;;
3050;SDS011;1535;51.098;6.414;2022-07-29T06:16:29;17.30;;;16.10;;
3050;SDS011;1535;51.098;6.414;2022-07-29T06:18:57;18.30;;;16.70;;
3050;SDS011;1535;51.098;6.414;2022-07-29T06:21:23;25.23;;;20.27;;
3050;SDS011;1535;51.098;6.414;2022-07-29T06:23:50;25.30;;;22.87;;
3050;SDS011;1535;51.098;6.414;2022-07-29T06:26:18;29.47;;;26.63;;
3050;SDS011;1535;51.098;6.414;2022-07-29T06:28:45;30.20;;;27.30;;
3050;SDS011;1535;51.098;6.414;2022-07-29T06:31:12;31.63;;;28.67;;
3050;SDS011;1535;51.098;6.414;2022-07-29T06:33:39;29.60;;;26.77;;
3050;SDS011;1535;51.098;6.414;2022-07-29T06:36:06;30.00;;;27.30;;
3050;SDS011;1535;51.098;6.414;2022-07-29T06:38:34;30.63;;;27.70;;
3050;SDS011;1535;51.098;6.414;2022-07-29T06:41:00;30.10;;;27.53;;
3050;SDS011;1535;51.098;6.414;2022-07-29T06:43:30;29.73;;;27.00;;
3050;SDS011;1535;51.098;6.414;2022-07-29T06:46:00;29.40;;;26.90;;
3050;SDS011;1535;51.098;6.414;2022-07-29T06:48:28;33.17;;;27.40;;
3050;SDS011;1535;51.098;6.414;2022-07-29T06:50:55;30.37;;;27.40;;
3050;SDS011;1535;51.098;6.414;2022-07-29T06:53:22;30.80;;;27.87;;
3050;SDS011;1535;51.098;6.414;2022-07-29T06:55:49;27.90;;;25.60;;
3050;SDS011;1535;51.098;6.414;2022-07-29T06:58:16;28.30;;;26.00;;
3050;SDS011;1535;51.098;6.414;2022-07-29T07:00:46;27.03;;;24.70;;
3050;SDS011;1535;51.098;6.414;2022-07-29T07:03:14;29.43;;;26.47;;
3050;SDS011;1535;51.098;6.414;2022-07-29T07:05:40;27.90;;;25.53;;
3050;SDS011;1535;51.098;6.414;2022-07-29T07:08:07;27.33;;;24.63;;
3050;SDS011;1535;51.098;6.414;2022-07-29T07:10:34;27.13;;;24.70;;
3050;SDS011;1535;51.098;6.414;2022-07-29T07:13:01;28.27;;;25.17;;
3050;SDS011;1535;51.098;6.414;2022-07-29T07:15:29;25.60;;;23.13;;
3050;SDS011;1535;51.098;6.414;2022-07-29T07:17:58;26.10;;;23.73;;
3050;SDS011;1535;51.098;6.414;2022-07-29T07:20:25;24.60;;;22.70;;
3050;SDS011;1535;51.098;6.414;2022-07-29T07:22:51;24.90;;;22.80;;
3050;SDS011;1535;51.098;6.414;2022-07-29T07:25:18;24.47;;;22.50;;
3050;SDS011;1535;51.098;6.414;2022-07-29T07:27:45;23.50;;;21.40;;
3050;SDS011;1535;51.098;6.414;2022-07-29T07:30:12;23.17;;;20.97;;
3050;SDS011;1535;51.098;6.414;2022-07-29T07:32:39;21.33;;;19.83;;
3050;SDS011;1535;51.098;6.414;2022-07-29T07:35:08;21.70;;;19.60;;
3050;SDS011;1535;51.098;6.414;2022-07-29T07:37:36;21.10;;;19.47;;
3050;SDS011;1535;51.098;6.414;2022-07-29T07:40:05;20.40;;;18.60;;
3050;SDS011;1535;51.098;6.414;2022-07-29T07:42:33;20.60;;;18.80;;
3050;SDS011;1535;51.098;6.414;2022-07-29T07:45:00;21.27;;;19.43;;
3050;SDS011;1535;51.098;6.414;2022-07-29T07:47:27;21.37;;;19.70;;
3050;SDS011;1535;51.098;6.414;2022-07-29T07:49:54;20.17;;;18.50;;
3050;SDS011;1535;51.098;6.414;2022-07-29T07:52:22;20.73;;;19.00;;
3050;SDS011;1535;51.098;6.414;2022-07-29T07:54:49;21.13;;;19.20;;
3050;SDS011;1535;51.098;6.414;2022-07-29T07:57:16;20.50;;;19.00;;
3050;SDS011;1535;51.098;6.414;2022-07-29T07:59:43;21.20;;;19.57;;
3050;SDS011;1535;51.098;6.414;2022-07-29T08:02:11;20.87;;;19.27;;
3050;SDS011;1535;51.098;6.414;2022-07-29T08:04:37;21.40;;;19.77;;
3050;SDS011;1535;51.098;6.414;2022-07-29T08:07:05;21.60;;;19.83;;
3050;SDS011;1535;51.098;6.414;2022-07-29T08:09:35;21.30;;;19.33;;
3050;SDS011;1535;51.098;6.414;2022-07-29T08:12:02;20.90;;;19.03;;
3050;SDS011;1535;51.098;6.414;2022-07-29T08:14:30;21.73;;;19.97;;
3050;SDS011;1535;51.098;6.414;2022-07-29T08:16:57;21.93;;;20.23;;
3050;SDS011;1535;51.098;6.414;2022-07-29T08:19:24;22.37;;;20.37;;
3050;SDS011;1535;51.098;6.414;2022-07-29T08:21:51;24.47;;;20.27;;
3050;SDS011;1535;51.098;6.414;2022-07-29T08:24:18;23.13;;;21.03;;
3050;SDS011;1535;51.098;6.414;2022-07-29T08:27:04;23.30;;;21.10;;
3050;SDS011;1535;51.098;6.414;2022-07-29T08:29:30;22.10;;;20.13;;
3050;SDS011;1535;51.098;6.414;2022-07-29T08:31:57;22.23;;;20.20;;
3050;SDS011;1535;51.098;6.414;2022-07-29T08:34:24;20.40;;;18.57;;
3050;SDS011;1535;51.098;6.414;2022-07-29T08:36:51;21.50;;;19.50;;
3050;SDS011;1535;51.098;6.414;2022-07-29T08:39:18;21.83;;;19.87;;
3050;SDS011;1535;51.098;6.414;2022-07-29T08:41:44;20.13;;;18.60;;
3050;SDS011;1535;51.098;6.414;2022-07-29T08:44:13;20.67;;;19.17;;
3050;SDS011;1535;51.098;6.414;2022-07-29T08:46:42;21.30;;;19.73;;
3050;SDS011;1535;51.098;6.414;2022-07-29T08:49:09;23.90;;;19.93;;
3050;SDS011;1535;51.098;6.414;2022-07-29T08:51:36;22.67;;;20.47;;
3050;SDS011;1535;51.098;6.414;2022-07-29T08:54:05;21.27;;;19.67;;
3050;SDS011;1535;51.098;6.414;2022-07-29T08:56:33;21.23;;;19.23;;
3050;SDS011;1535;51.098;6.414;2022-07-29T08:59:02;20.43;;;18.60;;
3050;SDS011;1535;51.098;6.414;2022-07-29T09:01:32;20.87;;;19.37;;
3050;SDS011;1535;51.098;6.414;2022-07-29T09:04:01;19.83;;;18.50;;
3050;SDS011;1535;51.098;6.414;2022-07-29T09:06:31;19.70;;;18.10;;
3050;SDS011;1535;51.098;6.414;2022-07-29T09:09:00;20.17;;;18.77;;
3050;SDS011;1535;51.098;6.414;2022-07-29T09:11:28;20.03;;;18.83;;
3050;SDS011;1535;51.098;6.414;2022-07-29T09:13:58;20.10;;;18.63;;
3050;SDS011;1535;51.098;6.414;2022-07-29T09:16:25;19.87;;;18.57;;
3050;SDS011;1535;51.098;6.414;2022-07-29T09:18:53;20.00;;;18.47;;
3050;SDS011;1535;51.098;6.414;2022-07-29T09:21:20;20.17;;;18.40;;
3050;SDS011;1535;51.098;6.414;2022-07-29T09:24:05;20.07;;;18.20;;
3050;SDS011;1535;51.098;6.414;2022-07-29T09:26:34;20.77;;;19.37;;
3050;SDS011;1535;51.098;6.414;2022-07-29T09:29:07;19.83;;;18.53;;
3050;SDS011;1535;51.098;6.414;2022-07-29T09:31:37;20.70;;;19.23;;
3050;SDS011;1535;51.098;6.414;2022-07-29T09:34:08;19.57;;;18.47;;
3050;SDS011;1535;51.098;6.414;2022-07-29T09:36:42;19.80;;;18.50;;
3050;SDS011;1535;51.098;6.414;2022-07-29T09:39:10;25.10;;;19.27;;
3050;SDS011;1535;51.098;6.414;2022-07-29T09:41:44;19.73;;;18.23;;
3050;SDS011;1535;51.098;6.414;2022-07-29T09:44:12;19.87;;;18.20;;
3050;SDS011;1535;51.098;6.414;2022-07-29T09:46:39;19.60;;;18.50;;
3050;SDS011;1535;51.098;6.414;2022-07-29T09:49:09;20.77;;;18.97;;
3050;SDS011;1535;51.098;6.414;2022-07-29T09:51:37;20.77;;;19.47;;
3050;SDS011;1535;51.098;6.414;2022-07-29T09:56:47;20.90;;;19.43;;
3050;SDS011;1535;51.098;6.414;2022-07-29T09:59:15;21.23;;;19.53;;
3050;SDS011;1535;51.098;6.414;2022-07-29T10:01:42;19.87;;;18.60;;
3050;SDS011;1535;51.098;6.414;2022-07-29T10:04:10;20.27;;;18.97;;
3050;SDS011;1535;51.098;6.414;2022-07-29T10:06:43;19.67;;;18.47;;
3050;SDS011;1535;51.098;6.414;2022-07-29T10:09:23;21.33;;;18.73;;
3050;SDS011;1535;51.098;6.414;2022-07-29T10:12:04;19.43;;;17.83;;
3050;SDS011;1535;51.098;6.414;2022-07-29T10:14:33;19.47;;;18.17;;
3050;SDS011;1535;51.098;6.414;2022-07-29T10:17:01;19.97;;;18.67;;
3050;SDS011;1535;51.098;6.414;2022-07-29T10:19:30;19.70;;;18.40;;
3050;SDS011;1535;51.098;6.414;2022-07-29T10:21:58;20.20;;;18.83;;
3050;SDS011;1535;51.098;6.414;2022-07-29T10:24:27;19.20;;;18.00;;
3050;SDS011;1535;51.098;6.414;2022-07-29T10:26:57;19.33;;;18.10;;
3050;SDS011;1535;51.098;6.414;2022-07-29T10:29:25;18.70;;;17.30;;
3050;SDS011;1535;51.098;6.414;2022-07-29T10:31:56;20.20;;;18.80;;
3050;SDS011;1535;51.098;6.414;2022-07-29T10:34:36;19.70;;;17.90;;
3050;SDS011;1535;51.098;6.414;2022-07-29T10:37:20;19.47;;;17.77;;
3050;SDS011;1535;51.098;6.414;2022-07-29T10:39:55;20.17;;;18.40;;
3050;SDS011;1535;51.098;6.414;2022-07-29T10:42:49;18.77;;;17.53;;
3050;SDS011;1535;51.098;6.414;2022-07-29T10:45:18;19.83;;;18.33;;
3050;SDS011;1535;51.098;6.414;2022-07-29T10:47:45;20.10;;;18.60;;
3050;SDS011;1535;51.098;6.414;2022-07-29T10:50:14;20.37;;;18.80;;
3050;SDS011;1535;51.098;6.414;2022-07-29T10:55:30;19.43;;;18.13;;
3050;SDS011;1535;51.098;6.414;2022-07-29T10:58:10;19.77;;;18.00;;
3050;SDS011;1535;51.098;6.414;2022-07-29T11:00:38;19.23;;;17.93;;
3050;SDS011;1535;51.098;6.414;2022-07-29T11:03:05;18.37;;;17.20;;
3050;SDS011;1535;51.098;6.414;2022-07-29T11:05:50;19.50;;;18.10;;
3050;SDS011;1535;51.098;6.414;2022-07-29T11:08:20;18.87;;;17.77;;
3050;SDS011;1535;51.098;6.414;2022-07-29T11:10:51;19.70;;;18.40;;
3050;SDS011;1535;51.098;6.414;2022-07-29T11:16:12;19.93;;;18.20;;
3050;SDS011;1535;51.098;6.414;2022-07-29T11:21:43;19.23;;;18.03;;
3050;SDS011;1535;51.098;6.414;2022-07-29T11:24:12;20.23;;;18.70;;
3050;SDS011;1535;51.098;6.414;2022-07-29T11:26:39;20.20;;;18.47;;
3050;SDS011;1535;51.098;6.414;2022-07-29T11:29:13;20.93;;;19.00;;
3050;SDS011;1535;51.098;6.414;2022-07-29T11:31:45;19.77;;;18.30;;
3050;SDS011;1535;51.098;6.414;2022-07-29T11:34:17;19.50;;;18.23;;
3050;SDS011;1535;51.098;6.414;2022-07-29T11:40:10;19.97;;;18.53;;
3050;SDS011;1535;51.098;6.414;2022-07-29T11:42:42;20.40;;;18.90;;
3050;SDS011;1535;51.098;6.414;2022-07-29T11:45:11;19.87;;;18.47;;
3050;SDS011;1535;51.098;6.414;2022-07-29T11:47:41;18.77;;;17.63;;
3050;SDS011;1535;51.098;6.414;2022-07-29T11:50:14;19.70;;;18.50;;
3050;SDS011;1535;51.098;6.414;2022-07-29T11:52:45;20.30;;;18.70;;
3050;SDS011;1535;51.098;6.414;2022-07-29T11:55:13;20.47;;;19.10;;
3050;SDS011;1535;51.098;6.414;2022-07-29T11:57:46;19.13;;;17.70;;
3050;SDS011;1535;51.098;6.414;2022-07-29T12:00:20;19.00;;;17.67;;
3050;SDS011;1535;51.098;6.414;2022-07-29T12:02:49;19.47;;;18.27;;
3050;SDS011;1535;51.098;6.414;2022-07-29T12:05:16;20.17;;;18.77;;
3050;SDS011;1535;51.098;6.414;2022-07-29T12:07:45;19.23;;;18.00;;
3050;SDS011;1535;51.098;6.414;2022-07-29T12:10:12;20.00;;;18.60;;
3050;SDS011;1535;51.098;6.414;2022-07-29T12:12:39;20.80;;;18.97;;
3050;SDS011;1535;51.098;6.414;2022-07-29T12:15:10;18.37;;;16.73;;
3050;SDS011;1535;51.098;6.414;2022-07-29T12:17:43;19.83;;;18.20;;
3050;SDS011;1535;51.098;6.414;2022-07-29T12:20:10;17.93;;;16.80;;
3050;SDS011;1535;51.098;6.414;2022-07-29T12:22:38;20.47;;;19.17;;
3050;SDS011;1535;51.098;6.414;2022-07-29T12:25:08;19.43;;;18.10;;
3050;SDS011;1535;51.098;6.414;2022-07-29T12:27:37;19.17;;;17.67;;
3050;SDS011;1535;51.098;6.414;2022-07-29T12:30:05;18.33;;;17.03;;
3050;SDS011;1535;51.098;6.414;2022-07-29T12:32:34;19.37;;;18.07;;
3050;SDS011;1535;51.098;6.414;2022-07-29T12:35:03;19.83;;;18.40;;
3050;SDS011;1535;51.098;6.414;2022-07-29T12:37:30;19.50;;;17.77;;
3050;SDS011;1535;51.098;6.414;2022-07-29T12:39:59;20.10;;;18.60;;
3050;SDS011;1535;51.098;6.414;2022-07-29T12:42:27;19.97;;;18.33;;
3050;SDS011;1535;51.098;6.414;2022-07-29T12:44:54;18.77;;;17.43;;
3050;SDS011;1535;51.098;6.414;2022-07-29T12:47:21;19.20;;;17.90;;
3050;SDS011;1535;51.098;6.414;2022-07-29T12:49:48;18.27;;;17.03;;
3050;SDS011;1535;51.098;6.414;2022-07-29T12:52:26;19.57;;;18.10;;
3050;SDS011;1535;51.098;6.414;2022-07-29T12:54:54;19.10;;;17.87;;
3050;SDS011;1535;51.098;6.414;2022-07-29T12:57:21;19.30;;;17.70;;
3050;SDS011;1535;51.098;6.414;2022-07-29T13:00:03;18.80;;;17.60;;
3050;SDS011;1535;51.098;6.414;2022-07-29T13:02:34;18.10;;;17.00;;
3050;SDS011;1535;51.098;6.414;2022-07-29T13:05:01;20.13;;;18.60;;
3050;SDS011;1535;51.098;6.414;2022-07-29T13:07:29;20.00;;;18.50;;
3050;SDS011;1535;51.098;6.414;2022-07-29T13:10:09;17.73;;;16.30;;
3050;SDS011;1535;51.098;6.414;2022-07-29T13:12:38;17.33;;;16.30;;
3050;SDS011;1535;51.098;6.414;2022-07-29T13:15:14;18.27;;;17.13;;
3050;SDS011;1535;51.098;6.414;2022-07-29T13:17:41;18.33;;;17.00;;
3050;SDS011;1535;51.098;6.414;2022-07-29T13:20:09;17.60;;;16.50;;
3050;SDS011;1535;51.098;6.414;2022-07-29T13:22:39;17.20;;;16.23;;
3050;SDS011;1535;51.098;6.414;2022-07-29T13:25:07;17.77;;;16.80;;
3050;SDS011;1535;51.098;6.414;2022-07-29T13:27:35;17.80;;;16.80;;
3050;SDS011;1535;51.098;6.414;2022-07-29T13:30:04;17.87;;;16.97;;
3050;SDS011;1535;51.098;6.414;2022-07-29T13:32:33;17.50;;;16.47;;
3050;SDS011;1535;51.098;6.414;2022-07-29T13:35:03;16.13;;;15.33;;
3050;SDS011;1535;51.098;6.414;2022-07-29T13:37:32;15.53;;;14.63;;
3050;SDS011;1535;51.098;6.414;2022-07-29T13:40:00;15.87;;;14.97;;
3050;SDS011;1535;51.098;6.414;2022-07-29T13:42:29;14.77;;;13.87;;
3050;SDS011;1535;51.098;6.414;2022-07-29T13:44:57;15.93;;;14.67;;
3050;SDS011;1535;51.098;6.414;2022-07-29T13:47:24;17.23;;;15.87;;
3050;SDS011;1535;51.098;6.414;2022-07-29T13:49:53;15.50;;;14.70;;
3050;SDS011;1535;51.098;6.414;2022-07-29T13:52:21;15.43;;;14.57;;
3050;SDS011;1535;51.098;6.414;2022-07-29T13:54:48;14.70;;;14.00;;
3050;SDS011;1535;51.098;6.414;2022-07-29T13:57:15;16.00;;;14.70;;
3050;SDS011;1535;51.098;6.414;2022-07-29T13:59:42;16.33;;;15.40;;
3050;SDS011;1535;51.098;6.414;2022-07-29T14:02:10;15.20;;;14.40;;
3050;SDS011;1535;51.098;6.414;2022-07-29T14:04:38;15.53;;;14.73;;
3050;SDS011;1535;51.098;6.414;2022-07-29T14:07:08;15.80;;;14.80;;
3050;SDS011;1535;51.098;6.414;2022-07-29T14:09:35;16.23;;;14.93;;
3050;SDS011;1535;51.098;6.414;2022-07-29T14:12:02;15.90;;;14.90;;
3050;SDS011;1535;51.098;6.414;2022-07-29T14:14:29;16.00;;;14.90;;
3050;SDS011;1535;51.098;6.414;2022-07-29T14:16:57;16.10;;;15.20;;
3050;SDS011;1535;51.098;6.414;2022-07-29T14:19:24;15.70;;;14.40;;
3050;SDS011;1535;51.098;6.414;2022-07-29T14:21:52;15.60;;;14.90;;
3050;SDS011;1535;51.098;6.414;2022-07-29T14:24:20;14.60;;;13.80;;
3050;SDS011;1535;51.098;6.414;2022-07-29T14:26:47;15.40;;;14.60;;
3050;SDS011;1535;51.098;6.414;2022-07-29T14:29:13;16.47;;;15.27;;
3050;SDS011;1535;51.098;6.414;2022-07-29T14:31:40;15.73;;;14.83;;
3050;SDS011;1535;51.098;6.414;2022-07-29T14:34:08;15.40;;;14.60;;
3050;SDS011;1535;51.098;6.414;2022-07-29T14:36:34;15.20;;;14.50;;
3050;SDS011;1535;51.098;6.414;2022-07-29T14:39:01;14.53;;;13.63;;
3050;SDS011;1535;51.098;6.414;2022-07-29T14:41:30;15.30;;;14.10;;
3050;SDS011;1535;51.098;6.414;2022-07-29T14:43:57;15.57;;;14.50;;
3050;SDS011;1535;51.098;6.414;2022-07-29T14:46:25;15.03;;;14.03;;
3050;SDS011;1535;51.098;6.414;2022-07-29T14:48:53;14.93;;;14.23;;
3050;SDS011;1535;51.098;6.414;2022-07-29T14:51:19;15.70;;;14.77;;
3050;SDS011;1535;51.098;6.414;2022-07-29T14:53:47;15.07;;;14.27;;
3050;SDS011;1535;51.098;6.414;2022-07-29T14:56:13;15.97;;;15.07;;
3050;SDS011;1535;51.098;6.414;2022-07-29T14:58:42;15.97;;;15.07;;
3050;SDS011;1535;51.098;6.414;2022-07-29T15:01:09;15.60;;;14.60;;
3050;SDS011;1535;51.098;6.414;2022-07-29T15:03:35;16.20;;;15.20;;
3050;SDS011;1535;51.098;6.414;2022-07-29T15:06:02;16.27;;;14.97;;
3050;SDS011;1535;51.098;6.414;2022-07-29T15:08:30;15.47;;;14.50;;
3050;SDS011;1535;51.098;6.414;2022-07-29T15:10:57;15.93;;;14.57;;
3050;SDS011;1535;51.098;6.414;2022-07-29T15:13:25;16.07;;;14.97;;
3050;SDS011;1535;51.098;6.414;2022-07-29T15:15:55;15.70;;;14.90;;